This is the latest recevied weather packets stored in our database for station/object WA1OUI. If no packets are shown the sender has not sent any weather packets the latest 10 day(s).
| Time | Temp. | Humidity | Pressure | Rain* | Wind** | Luminosity | Snow |
|---|---|---|---|---|---|---|---|
| 1777603921 | 8.33° C | 75% | 1007.1 hPa | 0 mm | - | 0 W/m² | - |
| 1777603619 | 8.89° C | 76% | 1007 hPa | 0 mm | - | 0 W/m² | - |
| 1777603314 | 8.33° C | 75% | 1007.1 hPa | 0 mm | - | 0 W/m² | - |
| 1777603010 | 8.33° C | 77% | 1007.2 hPa | 0 mm | - | 0 W/m² | - |
| 1777602705 | 8.33° C | 79% | 1007.1 hPa | 0 mm | - | 0 W/m² | - |
| 1777602400 | 8.33° C | 79% | 1007.2 hPa | 0 mm | - | 0 W/m² | - |
| 1777602097 | 8.33° C | 80% | 1007.1 hPa | 0 mm | - | 0 W/m² | - |
| 1777600273 | 8.89° C | 84% | 1007 hPa | 0 mm | - | 0 W/m² | - |
| 1777587215 | 13.33° C | 80% | 1004.7 hPa | 0 mm | - | 38 W/m² | - |
| 1777586001 | 13.33° C | 84% | 1004.7 hPa | 0 mm | - | 68 W/m² | - |
| 1777585085 | 13.33° C | 83% | 1004.5 hPa | 0 mm | - | 50 W/m² | - |
| 1777583875 | 13.89° C | 80% | 1004.2 hPa | 0 mm | - | 58 W/m² | - |
| 1777583270 | 13.33° C | 82% | 1004.3 hPa | 0 mm | - | 168 W/m² | - |
| 1777582970 | 13.33° C | 81% | 1004.1 hPa | 0 mm | - | 174 W/m² | - |
| 1777580845 | 12.78° C | 89% | 1004.2 hPa | 0 mm | - | 52 W/m² | - |
| 1777580236 | 12.78° C | 88% | 1004.2 hPa | 0 mm | - | 76 W/m² | - |
| 1777579934 | 12.78° C | 86% | 1004.1 hPa | 0 mm | - | 63 W/m² | - |
| 1777575991 | 12.78° C | 88% | 1004.5 hPa | 0 mm | - | 113 W/m² | - |
| 1777575687 | 12.78° C | 86% | 1004.3 hPa | 0 mm | - | 77 W/m² | - |
| 1777575382 | 12.78° C | 85% | 1004.1 hPa | 0 mm | - | 84 W/m² | - |
| 1777574775 | 12.78° C | 88% | 1004.2 hPa | 0 mm | - | 121 W/m² | - |
| 1777574473 | 12.78° C | 89% | 1004.2 hPa | 0 mm | - | 163 W/m² | - |
| 1777573558 | 12.22° C | 91% | 1004.4 hPa | 0 mm | - | 108 W/m² | - |
| 1777573255 | 12.78° C | 89% | 1004.2 hPa | 0 mm | - | 83 W/m² | - |
| 1777572647 | 12.78° C | 91% | 1004.1 hPa | 0 mm | - | 100 W/m² | - |
* Rain latest hour (hover to see other rain measurements)
** Current wind speed in m/s (hover to see current wind gust speed)